Time;durP1;ratioP1;P1;durP2;ratioP2;P2;SDS_P1;SDS_P2;PMS_P1;PMS_P2;Temp;Humidity;BMP_temperature;BMP_pressure;BME280_temperature;BME280_humidity;BME280_pressure;Samples;Min_cycle;Max_cycle;Signal;HPM_P1;HPM_P2
2022/01/31 00:00:20;;;;;;;18.38;3.25;;;;;;;1.43;nan;100502.69;5027695;28;21942;-70
2022/01/31 00:02:47;;;;;;;13.20;3.70;;;;;;;1.70;nan;100543.09;5028172;28;20658;-70
2022/01/31 00:05:12;;;;;;;17.60;3.75;;;;;;;1.77;nan;100548.41;5027393;28;20060;-69
2022/01/31 00:07:39;;;;;;;24.65;3.97;;;;;;;1.78;nan;100566.44;5009491;28;20484;-70
2022/01/31 00:10:08;;;;;;;28.63;4.47;;;;;;;1.73;nan;100542.75;5010079;28;20704;-70
2022/01/31 00:12:45;;;;;;;13.00;3.65;;;;;;;1.79;nan;100544.69;5027000;28;20021;-70
2022/01/31 00:15:11;;;;;;;17.05;3.25;;;;;;;1.72;nan;100529.94;5008453;28;20475;-70
2022/01/31 00:17:36;;;;;;;21.63;4.15;;;;;;;1.70;nan;100533.53;5031115;28;20048;-70
2022/01/31 00:20:02;;;;;;;21.95;3.88;;;;;;;1.85;nan;100556.22;5027799;28;20029;-70
2022/01/31 00:22:27;;;;;;;16.40;3.28;;;;;;;1.76;nan;100552.81;5027433;28;20030;-70
2022/01/31 00:24:52;;;;;;;18.77;3.85;;;;;;;1.79;nan;100551.66;4999689;28;20577;-70
2022/01/31 00:27:18;;;;;;;17.92;2.90;;;;;;;1.81;nan;100555.72;5027891;28;20045;-70
2022/01/31 00:29:43;;;;;;;21.10;3.00;;;;;;;1.81;nan;100555.72;5030297;28;20116;-70
2022/01/31 00:32:08;;;;;;;19.20;3.30;;;;;;;1.83;nan;100560.75;5032542;28;20495;-70
2022/01/31 00:34:34;;;;;;;21.45;3.75;;;;;;;1.70;nan;100550.88;5031612;28;20037;-70
2022/01/31 00:37:00;;;;;;;23.92;3.70;;;;;;;1.79;nan;100556.88;5032173;28;20034;-70
2022/01/31 00:39:25;;;;;;;38.35;3.92;;;;;;;1.80;nan;100567.09;5031710;28;20148;-70
2022/01/31 00:41:50;;;;;;;23.23;3.65;;;;;;;1.68;nan;100550.22;5031357;28;20376;-70
2022/01/31 00:44:25;;;;;;;22.35;2.85;;;;;;;1.70;nan;100566.47;5013566;28;20033;-70
2022/01/31 00:46:57;;;;;;;25.17;3.58;;;;;;;1.68;nan;100568.41;5030854;28;20045;-70
2022/01/31 00:49:49;;;;;;;20.98;3.15;;;;;;;1.71;nan;100581.06;5013550;28;20060;-70
2022/01/31 00:52:08;;;;;;;20.63;3.30;;;;;;;1.45;nan;100543.06;5029243;28;20056;-70
2022/01/31 00:54:33;;;;;;;18.92;3.28;;;;;;;1.65;nan;100581.69;5031122;28;20033;-70
2022/01/31 00:56:59;;;;;;;24.42;3.80;;;;;;;1.54;nan;100569.03;5011693;28;20399;-70
2022/01/31 00:59:24;;;;;;;24.42;3.30;;;;;;;1.54;nan;100588.03;5031470;28;20428;-70
2022/01/31 01:01:50;;;;;;;20.63;3.72;;;;;;;1.46;nan;100572.41;5031825;28;20467;-70
2022/01/31 01:04:15;;;;;;;22.77;4.30;;;;;;;1.46;nan;100585.41;5031006;28;20033;-71
2022/01/31 01:06:41;;;;;;;18.63;4.10;;;;;;;1.42;nan;100581.53;5031730;28;20034;-70
2022/01/31 01:09:07;;;;;;;29.73;3.90;;;;;;;1.36;nan;100580.34;5032093;28;20037;-73
2022/01/31 01:11:33;;;;;;;17.85;4.35;;;;;;;1.30;nan;100578.41;5032691;28;20041;-72
2022/01/31 01:13:59;;;;;;;27.05;5.38;;;;;;;1.38;nan;100593.19;5033050;28;20033;-73
2022/01/31 01:16:24;;;;;;;14.77;3.83;;;;;;;1.30;nan;100569.84;5033678;28;20250;-73
2022/01/31 01:18:50;;;;;;;12.32;3.53;;;;;;;1.29;nan;100574.19;5032512;28;20037;-72
2022/01/31 01:21:15;;;;;;;12.25;3.00;;;;;;;1.22;nan;100566.25;5013129;28;20064;-73
2022/01/31 01:23:41;;;;;;;17.83;3.70;;;;;;;1.24;nan;100563.47;5031715;28;20067;-72
2022/01/31 01:26:06;;;;;;;25.15;3.65;;;;;;;1.20;nan;100562.19;5032256;28;20037;-73
2022/01/31 01:28:35;;;;;;;6.90;2.50;;;;;;;1.27;nan;100570.97;5023388;28;21534;-73
2022/01/31 01:31:00;;;;;;;16.27;3.50;;;;;;;1.24;nan;100573.84;5030824;28;20033;-73
2022/01/31 01:33:26;;;;;;;12.35;2.72;;;;;;;1.20;nan;100569.97;5024994;28;20096;-73
2022/01/31 01:35:54;;;;;;;21.45;3.97;;;;;;;1.23;nan;100567.06;5031247;28;20395;-73
2022/01/31 01:38:23;;;;;;;17.38;2.95;;;;;;;1.27;nan;100574.38;5031304;28;20127;-72
2022/01/31 01:40:48;;;;;;;11.32;2.70;;;;;;;1.27;nan;100566.59;5013993;28;20037;-71
2022/01/31 01:43:15;;;;;;;22.15;3.17;;;;;;;0.94;nan;100511.25;5027886;28;20079;-72
2022/01/31 01:45:42;;;;;;;13.40;2.97;;;;;;;1.25;nan;100560.75;5030352;28;20044;-72
2022/01/31 01:48:09;;;;;;;20.15;2.75;;;;;;;1.33;nan;100572.91;5031120;28;20038;-72
2022/01/31 01:50:37;;;;;;;10.25;2.95;;;;;;;1.26;nan;100562.34;5030766;28;20534;-72
2022/01/31 01:53:04;;;;;;;16.25;3.13;;;;;;;1.49;nan;100572.13;5030830;28;20598;-72
2022/01/31 01:55:30;;;;;;;14.13;2.65;;;;;;;1.41;nan;100562.56;5027073;28;20045;-71
2022/01/31 01:57:56;;;;;;;15.73;3.00;;;;;;;1.32;nan;100544.50;5013019;28;20033;-72
2022/01/31 02:00:27;;;;;;;11.50;2.42;;;;;;;1.42;nan;100565.97;5030515;28;20038;-72
2022/01/31 02:02:54;;;;;;;13.18;2.55;;;;;;;1.39;nan;100559.31;5031179;28;20029;-72
2022/01/31 02:05:22;;;;;;;13.18;2.70;;;;;;;1.35;nan;100562.38;5012402;28;20059;-71
2022/01/31 02:07:47;;;;;;;11.57;2.63;;;;;;;1.30;nan;100551.69;5006353;28;20495;-72
2022/01/31 02:10:15;;;;;;;16.92;2.80;;;;;;;1.33;nan;100562.53;5030774;28;20030;-72
2022/01/31 02:12:43;;;;;;;14.90;2.80;;;;;;;1.31;nan;100559.28;5030826;28;20060;-71
2022/01/31 02:15:11;;;;;;;15.23;3.30;;;;;;;1.30;nan;100562.06;5008315;28;20671;-69
2022/01/31 02:17:37;;;;;;;13.73;2.80;;;;;;;1.22;nan;100548.09;5033681;28;20037;-74
2022/01/31 02:20:08;;;;;;;13.75;2.67;;;;;;;1.13;nan;100538.69;5031522;28;20037;-72
2022/01/31 02:22:35;;;;;;;17.65;2.60;;;;;;;0.91;nan;100501.22;5012895;28;20036;-71
2022/01/31 02:25:01;;;;;;;11.57;2.40;;;;;;;1.22;nan;100544.66;5008978;28;20120;-72
2022/01/31 02:27:29;;;;;;;13.27;2.83;;;;;;;1.20;nan;100541.44;5030245;28;20057;-73
2022/01/31 02:29:55;;;;;;;20.92;2.70;;;;;;;1.03;nan;100525.84;5031558;28;20086;-73
2022/01/31 02:32:22;;;;;;;10.40;2.20;;;;;;;1.06;nan;100530.72;5031074;28;20033;-73
2022/01/31 02:34:51;;;;;;;13.25;2.42;;;;;;;1.05;nan;100536.06;5029775;28;20037;-72
2022/01/31 02:37:19;;;;;;;6.57;2.35;;;;;;;1.13;nan;100543.88;5013732;28;20357;-72
2022/01/31 02:39:45;;;;;;;10.55;2.28;;;;;;;1.00;nan;100531.34;5030751;28;20045;-72
2022/01/31 02:42:11;;;;;;;11.77;2.70;;;;;;;0.91;nan;100503.81;5031045;28;20063;-72
2022/01/31 02:44:44;;;;;;;12.10;2.78;;;;;;;1.05;nan;100520.50;5031054;28;20129;-73
2022/01/31 02:47:26;;;;;;;12.02;2.85;;;;;;;1.03;nan;100525.84;5028186;28;20139;-72
2022/01/31 02:49:59;;;;;;;12.13;2.53;;;;;;;1.00;nan;100531.34;5030473;28;20026;-71
2022/01/31 02:52:27;;;;;;;18.27;2.80;;;;;;;0.94;nan;100507.84;5012065;28;20555;-72
2022/01/31 02:54:53;;;;;;;12.70;2.05;;;;;;;0.94;nan;100505.25;5028572;28;20089;-72
2022/01/31 02:57:18;;;;;;;17.63;2.85;;;;;;;0.81;nan;100501.34;5030411;28;20552;-71
2022/01/31 02:59:44;;;;;;;10.40;3.10;;;;;;;0.66;nan;100474.41;5030223;28;20033;-72
2022/01/31 03:02:09;;;;;;;12.63;3.28;;;;;;;0.66;nan;100478.78;5030640;28;20037;-72
2022/01/31 03:04:35;;;;;;;14.57;3.08;;;;;;;0.76;nan;100502.78;5029617;28;20087;-72
2022/01/31 03:07:00;;;;;;;13.57;2.20;;;;;;;0.73;nan;100487.56;5029103;28;20109;-72
2022/01/31 03:09:26;;;;;;;18.13;3.38;;;;;;;0.85;nan;100507.81;5026233;28;20032;-72
2022/01/31 03:11:51;;;;;;;17.92;2.95;;;;;;;0.75;nan;100504.56;5010984;28;20040;-72
2022/01/31 03:14:18;;;;;;;12.85;3.75;;;;;;;0.65;nan;100493.53;5029861;28;20116;-72
2022/01/31 03:16:45;;;;;;;15.60;2.63;;;;;;;0.70;nan;100499.03;5031196;28;20049;-73
2022/01/31 03:19:10;;;;;;;11.57;2.30;;;;;;;0.69;nan;100512.16;5028663;28;20030;-73
2022/01/31 03:21:37;;;;;;;13.52;3.28;;;;;;;0.66;nan;100504.69;5029131;28;20542;-72
2022/01/31 03:24:04;;;;;;;11.25;2.47;;;;;;;0.61;nan;100495.59;5010430;28;20033;-72
2022/01/31 03:26:30;;;;;;;11.68;2.28;;;;;;;0.59;nan;100488.97;5029855;28;20423;-72
2022/01/31 03:28:55;;;;;;;15.35;3.35;;;;;;;0.70;nan;100506.00;5012330;28;20094;-72
2022/01/31 03:31:21;;;;;;;12.25;2.78;;;;;;;0.59;nan;100478.59;5010317;28;20043;-73
2022/01/31 03:33:48;;;;;;;11.55;2.53;;;;;;;0.68;nan;100503.56;5008103;28;20037;-72
2022/01/31 03:36:14;;;;;;;18.23;3.13;;;;;;;0.66;nan;100486.56;5029883;28;20037;-72
2022/01/31 03:38:41;;;;;;;20.00;2.90;;;;;;;0.64;nan;100500.47;5027968;28;20040;-72
2022/01/31 03:41:11;;;;;;;10.93;2.80;;;;;;;0.62;nan;100505.03;5010736;28;20538;-72
2022/01/31 03:43:37;;;;;;;14.30;3.35;;;;;;;0.56;nan;100492.69;5030170;28;20491;-72
2022/01/31 03:46:04;;;;;;;14.27;2.70;;;;;;;0.53;nan;100497.38;5030427;28;20060;-72
2022/01/31 03:48:29;;;;;;;12.88;2.65;;;;;;;0.56;nan;100503.03;5030339;28;20033;-72
2022/01/31 03:50:59;;;;;;;13.98;2.72;;;;;;;0.52;nan;100490.56;5030437;28;20048;-72
2022/01/31 03:53:25;;;;;;;;;;;;;;;0.53;nan;100494.78;5011897;28;20438;-72
2022/01/31 03:55:50;;;;;;;17.92;2.90;;;;;;;0.41;nan;100470.94;5029752;28;19917;-73
2022/01/31 03:58:15;;;;;;;19.70;2.75;;;;;;;0.44;nan;100470.63;5012042;28;20033;-72
2022/01/31 04:00:41;;;;;;;11.75;3.22;;;;;;;0.51;nan;100486.34;5012212;28;20530;-73
2022/01/31 04:03:07;;;;;;;13.95;2.97;;;;;;;0.54;nan;100486.84;5029738;28;20029;-73
2022/01/31 04:05:33;;;;;;;15.43;2.72;;;;;;;0.54;nan;100483.44;5030561;28;20044;-71
2022/01/31 04:07:58;;;;;;;19.08;3.42;;;;;;;0.54;nan;100481.66;5028259;28;20041;-72
2022/01/31 04:10:25;;;;;;;18.17;4.00;;;;;;;0.55;nan;100485.88;5027720;28;20029;-72
2022/01/31 04:12:51;;;;;;;14.50;3.40;;;;;;;0.54;nan;100484.25;5029218;28;20022;-74
2022/01/31 04:15:17;;;;;;;12.90;2.88;;;;;;;0.43;nan;100471.56;5029486;28;20037;-71
2022/01/31 04:17:42;;;;;;;18.45;3.42;;;;;;;0.45;nan;100469.63;5013027;28;20369;-72
2022/01/31 04:20:09;;;;;;;13.88;3.08;;;;;;;0.49;nan;100476.13;5029510;28;20061;-72
2022/01/31 04:22:40;;;;;;;11.77;3.03;;;;;;;0.50;nan;100475.16;5028736;28;20061;-72
2022/01/31 04:25:13;;;;;;;17.52;3.20;;;;;;;0.28;nan;100440.28;5027429;28;20037;-72
2022/01/31 04:27:45;;;;;;;12.57;2.65;;;;;;;0.45;nan;100469.63;5029225;28;20412;-72
2022/01/31 04:30:14;;;;;;;19.10;3.28;;;;;;;0.42;nan;100462.19;5029760;28;20061;-73
2022/01/31 04:32:39;;;;;;;15.55;3.40;;;;;;;0.29;nan;100438.50;5031835;28;20038;-72
2022/01/31 04:35:05;;;;;;;15.88;3.40;;;;;;;0.42;nan;100462.19;5029029;28;20045;-73
2022/01/31 04:37:31;;;;;;;23.75;3.10;;;;;;;0.35;nan;100451.63;5029861;28;20040;-71
2022/01/31 04:39:56;;;;;;;19.55;3.08;;;;;;;0.35;nan;100456.00;5011765;28;20120;-73
2022/01/31 04:42:23;;;;;;;18.98;3.05;;;;;;;0.35;nan;100453.44;5028786;28;20065;-73
2022/01/31 04:44:49;;;;;;;24.98;3.67;;;;;;;0.30;nan;100450.50;5029322;28;20037;-72
2022/01/31 04:47:14;;;;;;;12.85;2.95;;;;;;;0.39;nan;100462.50;5029597;28;20119;-71
2022/01/31 04:49:39;;;;;;;11.93;2.90;;;;;;;0.28;nan;100447.25;5008653;28;20488;-72
2022/01/31 04:52:05;;;;;;;11.93;3.42;;;;;;;0.35;nan;100458.59;5003405;28;20372;-72
2022/01/31 04:54:31;;;;;;;17.98;3.20;;;;;;;0.33;nan;100445.00;5028809;28;20549;-72
2022/01/31 04:56:56;;;;;;;13.95;3.67;;;;;;;0.31;nan;100446.94;5007652;28;20049;-72
2022/01/31 04:59:22;;;;;;;14.80;3.55;;;;;;;0.29;nan;100441.09;5004207;28;20042;-72
2022/01/31 05:01:48;;;;;;;11.75;3.60;;;;;;;0.20;nan;100425.53;5026728;28;20029;-72
2022/01/31 05:04:14;;;;;;;23.30;3.72;;;;;;;0.17;nan;100428.44;5012623;28;20661;-72
2022/01/31 05:06:41;;;;;;;14.25;3.33;;;;;;;0.29;nan;100446.25;5027929;28;20045;-72
2022/01/31 05:09:08;;;;;;;17.70;3.58;;;;;;;0.21;nan;100427.16;5027955;28;20087;-72
2022/01/31 05:11:34;;;;;;;18.95;3.60;;;;;;;0.27;nan;100430.09;5010707;28;20403;-73
2022/01/31 05:13:59;;;;;;;17.65;3.92;;;;;;;0.09;nan;100399.13;5028192;28;20045;-72
2022/01/31 05:16:24;;;;;;;19.95;3.72;;;;;;;0.17;nan;100407.72;5029344;28;20042;-70
2022/01/31 05:18:50;;;;;;;27.08;4.70;;;;;;;0.25;nan;100422.47;5031513;28;20026;-72
2022/01/31 05:21:15;;;;;;;19.05;4.18;;;;;;;0.07;nan;100386.31;5031985;28;20087;-71
2022/01/31 05:23:41;;;;;;;15.13;3.20;;;;;;;0.15;nan;100398.50;5031847;28;20040;-72
2022/01/31 05:26:06;;;;;;;21.90;4.05;;;;;;;0.15;nan;100401.09;5013624;28;20471;-72
2022/01/31 05:28:32;;;;;;;15.60;4.00;;;;;;;0.19;nan;100403.22;5032071;28;20505;-73
2022/01/31 05:30:57;;;;;;;25.13;4.43;;;;;;;0.28;nan;100419.56;5031893;28;20103;-73
2022/01/31 05:33:23;;;;;;;23.45;4.68;;;;;;;0.25;nan;100413.91;5017330;28;20042;-73
2022/01/31 05:35:49;;;;;;;16.42;3.78;;;;;;;0.16;nan;100392.34;5011871;28;20407;-72
2022/01/31 05:38:14;;;;;;;18.00;3.30;;;;;;;0.16;nan;100400.91;5031269;28;20057;-72
2022/01/31 05:40:40;;;;;;;21.05;3.90;;;;;;;0.24;nan;100412.25;5030357;28;20067;-72
2022/01/31 05:43:05;;;;;;;18.33;3.78;;;;;;;0.27;nan;100410.19;4994297;28;20704;-73
2022/01/31 05:45:31;;;;;;;23.83;4.05;;;;;;;0.28;nan;100404.03;5030151;28;20036;-71
2022/01/31 05:47:57;;;;;;;19.55;3.55;;;;;;;0.19;nan;100379.06;5013250;28;20041;-72
2022/01/31 05:50:23;;;;;;;15.65;3.55;;;;;;;0.03;nan;100359.13;5012266;28;20116;-74
2022/01/31 05:52:48;;;;;;;22.25;3.90;;;;;;;0.28;nan;100390.28;5012831;28;20039;-73
2022/01/31 05:55:14;;;;;;;18.63;3.08;;;;;;;0.32;nan;100378.63;5001393;28;20087;-72
2022/01/31 05:57:42;;;;;;;21.48;3.42;;;;;;;0.26;nan;100353.34;5024013;28;20129;-73
2022/01/31 06:00:09;;;;;;;20.52;4.10;;;;;;;0.36;nan;100372.97;5030675;28;20506;-74
2022/01/31 06:02:35;;;;;;;13.77;3.30;;;;;;;0.34;nan;100355.97;5009889;28;20034;-73
2022/01/31 06:05:02;;;;;;;19.33;3.50;;;;;;;0.45;nan;100371.19;5008428;28;20364;-74
2022/01/31 06:07:27;;;;;;;16.58;3.13;;;;;;;0.27;nan;100348.03;5028271;28;20364;-74
2022/01/31 06:09:53;;;;;;;17.33;3.28;;;;;;;0.40;nan;100361.31;5030199;28;20083;-72
2022/01/31 06:12:18;;;;;;;16.38;3.45;;;;;;;0.46;nan;100364.25;5008184;28;20140;-73
2022/01/31 06:14:43;;;;;;;22.75;4.20;;;;;;;0.56;nan;100377.88;5029372;28;20060;-73
2022/01/31 06:17:09;;;;;;;19.80;4.75;;;;;;;0.58;nan;100387.09;5032087;28;20033;-72
2022/01/31 06:19:34;;;;;;;29.90;6.82;;;;;;;0.61;nan;100385.97;5027951;28;20080;-73
2022/01/31 06:22:00;;;;;;;23.58;5.82;;;;;;;0.56;nan;100376.09;4994789;28;20033;-74
2022/01/31 06:24:26;;;;;;;17.05;4.35;;;;;;;0.62;nan;100372.03;5012052;28;20592;-74
2022/01/31 06:26:51;;;;;;;18.60;5.32;;;;;;;0.46;nan;100353.91;5011751;28;20044;-74
2022/01/31 06:29:17;;;;;;;20.77;4.70;;;;;;;0.58;nan;100358.59;5002462;28;20033;-74
2022/01/31 06:31:42;;;;;;;19.02;4.75;;;;;;;0.67;nan;100361.19;5033722;28;20394;-72
2022/01/31 06:34:08;;;;;;;23.02;4.60;;;;;;;0.70;nan;100356.50;5007781;28;20104;-73
2022/01/31 06:36:34;;;;;;;15.90;4.78;;;;;;;0.50;nan;100322.31;5029999;28;20037;-72
2022/01/31 06:39:00;;;;;;;22.88;4.75;;;;;;;0.69;nan;100354.06;5029616;28;20029;-74
2022/01/31 06:41:26;;;;;;;22.08;5.68;;;;;;;0.69;nan;100346.28;5008580;28;20038;-75
2022/01/31 06:44:00;;;;;;;19.63;5.70;;;;;;;0.67;nan;100350.81;5028619;28;20076;-74
2022/01/31 06:46:25;;;;;;;23.48;4.88;;;;;;;0.71;nan;100358.13;5010897;28;20148;-74
2022/01/31 06:48:50;;;;;;;23.58;4.63;;;;;;;0.69;nan;100346.28;4988767;28;20492;-73
2022/01/31 06:51:16;;;;;;;23.73;4.97;;;;;;;0.70;nan;100355.69;5029068;28;20033;-73
2022/01/31 06:53:42;;;;;;;16.42;4.38;;;;;;;0.63;nan;100343.38;5029564;28;20411;-73
2022/01/31 06:56:07;;;;;;;27.23;5.32;;;;;;;0.89;nan;100386.47;5028137;28;20073;-75
2022/01/31 06:58:33;;;;;;;17.02;4.80;;;;;;;0.79;nan;100365.06;5009582;28;20037;-73
2022/01/31 07:00:58;;;;;;;14.05;4.05;;;;;;;0.92;nan;100388.75;5028781;28;20120;-73
2022/01/31 07:03:24;;;;;;;35.65;8.75;;;;;;;0.81;nan;100357.94;5007406;28;20037;-74
2022/01/31 07:05:49;;;;;;;29.80;6.32;;;;;;;0.99;nan;100394.91;5027531;28;20653;-73
2022/01/31 07:08:16;;;;;;;25.65;6.35;;;;;;;0.98;nan;100387.28;5028266;28;20048;-73
2022/01/31 07:10:50;;;;;;;21.23;5.45;;;;;;;1.05;nan;100390.84;5008943;28;20791;-73
2022/01/31 07:13:37;;;;;;;22.55;5.13;;;;;;;1.05;nan;100391.66;5009417;28;20562;-73
2022/01/31 07:16:06;;;;;;;19.42;4.88;;;;;;;1.06;nan;100388.09;5025855;28;20037;-74
2022/01/31 07:18:34;;;;;;;30.23;5.53;;;;;;;1.10;nan;100396.34;5009184;28;20030;-73
2022/01/31 07:20:59;;;;;;;27.52;5.63;;;;;;;1.00;nan;100386.13;5010899;28;20041;-73
2022/01/31 07:23:37;;;;;;;23.10;5.43;;;;;;;1.02;nan;100383.41;5011130;28;20565;-73
2022/01/31 07:26:03;;;;;;;22.67;5.50;;;;;;;1.15;nan;100388.06;5027224;28;20072;-74
2022/01/31 07:28:28;;;;;;;26.42;6.45;;;;;;;1.18;nan;100392.97;5029191;28;20061;-73
2022/01/31 07:30:54;;;;;;;30.10;5.95;;;;;;;1.20;nan;100391.00;5028060;28;20075;-74
2022/01/31 07:33:20;;;;;;;27.10;6.70;;;;;;;1.26;nan;100391.16;5029829;28;20499;-74
2022/01/31 07:35:48;;;;;;;32.67;9.10;;;;;;;1.32;nan;100384.50;5028198;28;20434;-74
2022/01/31 07:38:13;;;;;;;29.40;7.13;;;;;;;1.34;nan;100374.78;5005433;28;20033;-74
2022/01/31 07:40:39;;;;;;;28.67;5.75;;;;;;;1.38;nan;100378.66;5009649;28;20186;-73
2022/01/31 07:43:05;;;;;;;21.95;5.63;;;;;;;1.35;nan;100354.84;5009614;28;20150;-73
2022/01/31 07:45:30;;;;;;;20.38;5.43;;;;;;;1.49;nan;100362.75;5010071;28;20030;-73
2022/01/31 07:47:56;;;;;;;19.30;4.78;;;;;;;1.42;nan;100343.63;5010974;28;20065;-73
2022/01/31 07:50:22;;;;;;;25.80;6.05;;;;;;;1.57;nan;100353.31;5009767;28;20451;-73
2022/01/31 07:52:47;;;;;;;22.50;5.57;;;;;;;1.66;nan;100345.31;5025708;28;20116;-72
2022/01/31 07:55:12;;;;;;;21.95;6.45;;;;;;;1.63;nan;100321.50;5025600;28;20127;-72
2022/01/31 07:57:40;;;;;;;27.20;5.45;;;;;;;1.73;nan;100324.69;5010133;28;20033;-73
2022/01/31 08:00:07;;;;;;;26.60;5.85;;;;;;;1.94;nan;100344.91;5028797;28;20037;-73
2022/01/31 08:02:32;;;;;;;29.00;6.63;;;;;;;1.94;nan;100337.09;5028019;28;20029;-74
2022/01/31 08:04:58;;;;;;;20.67;6.38;;;;;;;2.07;nan;100339.94;5008409;28;20340;-74
2022/01/31 08:07:24;;;;;;;28.13;8.00;;;;;;;2.04;nan;100319.53;5028300;28;20087;-73
2022/01/31 08:09:50;;;;;;;25.60;6.00;;;;;;;2.15;nan;100314.91;5010769;28;20414;-71
2022/01/31 08:12:15;;;;;;;37.22;10.35;;;;;;;2.29;nan;100306.38;5028438;28;20033;-72
2022/01/31 08:14:41;;;;;;;21.75;6.53;;;;;;;2.50;nan;100323.94;5010645;28;20034;-72
2022/01/31 08:17:06;;;;;;;24.92;6.03;;;;;;;2.44;nan;100302.06;5033156;28;20037;-72
2022/01/31 08:19:33;;;;;;;31.73;5.43;;;;;;;2.67;nan;100314.22;5009953;28;20113;-72
2022/01/31 08:21:59;;;;;;;24.50;5.20;;;;;;;2.75;nan;100330.56;5010390;28;20037;-72
2022/01/31 08:24:25;;;;;;;18.83;4.38;;;;;;;2.84;nan;100314.88;5028595;28;20033;-72
2022/01/31 08:26:50;;;;;;;13.43;3.65;;;;;;;2.62;nan;100265.34;5010194;28;20064;-72
2022/01/31 08:29:28;;;;;;;23.23;4.03;;;;;;;2.92;nan;100287.03;5028613;28;20468;-71
2022/01/31 08:31:53;;;;;;;24.10;4.63;;;;;;;2.87;nan;100267.72;5011626;28;20128;-73
2022/01/31 08:35:47;;;;;;;19.27;5.85;;;;;;;2.92;nan;100266.22;5028347;28;20128;-73
2022/01/31 08:37:09;;;;;;;22.38;4.70;;;;;;;3.02;nan;100267.72;5028451;28;20711;-77
2022/01/31 08:39:35;;;;;;;23.35;5.25;;;;;;;3.01;nan;100255.72;5010614;28;20041;-75
2022/01/31 08:42:01;;;;;;;22.02;4.43;;;;;;;3.20;nan;100286.41;5027469;28;20087;-71
2022/01/31 08:44:26;;;;;;;26.30;5.10;;;;;;;3.16;nan;100254.75;5010849;28;20040;-72
2022/01/31 08:46:52;;;;;;;21.38;6.70;;;;;;;3.35;nan;100262.97;5028610;28;20660;-72
2022/01/31 08:49:18;;;;;;;29.98;8.90;;;;;;;3.32;nan;100250.31;5010036;28;20116;-71
2022/01/31 08:51:45;;;;;;;92.43;19.42;;;;;;;3.50;nan;100248.16;5000789;28;20061;-73
2022/01/31 08:54:12;;;;;;;34.95;10.98;;;;;;;3.65;nan;100273.38;5014834;28;20395;-72
2022/01/31 08:56:44;;;;;;;18.10;5.13;;;;;;;3.70;nan;100271.00;5030573;28;20049;-72
2022/01/31 08:59:14;;;;;;;22.00;5.05;;;;;;;3.69;nan;100258.97;5032258;28;20064;-73
2022/01/31 09:01:39;;;;;;;32.58;6.32;;;;;;;3.85;nan;100261.34;5013798;28;20033;-72
2022/01/31 09:04:08;;;;;;;20.80;4.38;;;;;;;3.98;nan;100261.50;5013918;28;20113;-72
2022/01/31 09:06:34;;;;;;;14.45;3.92;;;;;;;4.02;nan;100244.53;5013826;28;20038;-73
2022/01/31 09:09:05;;;;;;;22.00;4.95;;;;;;;4.15;nan;100254.25;5032043;28;20060;-73
2022/01/31 09:11:31;;;;;;;19.13;3.90;;;;;;;4.13;nan;100240.59;5030715;28;20025;-73
2022/01/31 09:13:58;;;;;;;26.92;5.30;;;;;;;4.15;nan;100237.81;5013416;28;20045;-72
2022/01/31 09:16:24;;;;;;;21.65;4.97;;;;;;;4.21;nan;100242.25;5035438;28;20037;-72
2022/01/31 09:18:50;;;;;;;20.88;6.22;;;;;;;4.22;nan;100228.25;5028871;28;20042;-72
2022/01/31 09:21:16;;;;;;;20.08;4.63;;;;;;;4.22;nan;100217.84;5006004;28;20498;-71
2022/01/31 09:23:41;;;;;;;18.70;6.55;;;;;;;4.05;nan;100183.41;5030356;28;20132;-72
2022/01/31 09:26:07;;;;;;;19.75;5.22;;;;;;;4.34;nan;100226.75;5031445;28;20037;-72
2022/01/31 09:28:32;;;;;;;17.42;3.63;;;;;;;4.40;nan;100226.00;5013923;28;20360;-72
2022/01/31 09:30:58;;;;;;;15.35;3.08;;;;;;;4.51;nan;100236.91;5031738;28;20033;-72
2022/01/31 09:33:25;;;;;;;12.20;3.42;;;;;;;4.52;nan;100244.53;5014365;28;20053;-76
2022/01/31 09:35:51;;;;;;;17.20;3.72;;;;;;;4.53;nan;100229.72;5014762;28;20028;-76
2022/01/31 09:38:22;;;;;;;16.50;3.55;;;;;;;4.62;nan;100237.22;5011144;28;20033;-76
2022/01/31 09:40:47;;;;;;;18.58;4.00;;;;;;;4.68;nan;100236.44;5013735;28;20041;-76
2022/01/31 09:46:45;;;;;;;15.18;3.65;;;;;;;4.65;nan;100210.75;5028904;28;20033;-73
2022/01/31 09:49:06;;;;;;;15.05;3.40;;;;;;;4.83;nan;100222.47;5032130;28;20041;-74
2022/01/31 09:51:32;;;;;;;16.42;3.33;;;;;;;4.77;nan;100207.63;5014521;28;20919;-76
2022/01/31 09:54:01;;;;;;;15.20;3.47;;;;;;;4.77;nan;100197.97;5010754;28;20038;-77
2022/01/31 09:56:34;;;;;;;18.02;3.08;;;;;;;4.84;nan;100209.25;5013999;28;20068;-76
2022/01/31 09:59:01;;;;;;;14.35;3.28;;;;;;;4.95;nan;100225.38;5015649;28;20036;-75
2022/01/31 10:01:28;;;;;;;12.77;4.00;;;;;;;5.03;nan;100214.78;5015295;28;20033;-73
2022/01/31 10:03:58;;;;;;;15.40;4.38;;;;;;;5.04;nan;100211.16;5015151;28;20036;-74
2022/01/31 10:06:31;;;;;;;20.50;5.43;;;;;;;5.05;nan;100202.31;5008212;28;20049;-73
2022/01/31 10:09:11;;;;;;;24.88;6.50;;;;;;;5.09;nan;100200.94;5025500;28;20026;-75
2022/01/31 10:11:56;;;;;;;19.20;4.90;;;;;;;5.07;nan;100192.50;5013261;28;20037;-75
2022/01/31 10:17:45;;;;;;;17.35;4.00;;;;;;;5.07;nan;100175.03;5026591;28;20415;-75
2022/01/31 10:20:30;;;;;;;19.15;5.00;;;;;;;5.05;nan;100150.13;5013265;28;20048;-75
2022/01/31 10:23:08;;;;;;;15.02;4.57;;;;;;;5.14;nan;100150.78;5030094;28;20037;-74
2022/01/31 10:25:34;;;;;;;14.00;3.58;;;;;;;4.99;nan;100117.81;5025884;28;20064;-74
2022/01/31 10:28:00;;;;;;;15.65;3.63;;;;;;;5.28;nan;100136.78;5029953;28;20029;-74
2022/01/31 10:30:29;;;;;;;20.50;3.22;;;;;;;5.28;nan;100139.38;5031236;28;20052;-75
2022/01/31 10:32:56;;;;;;;17.48;3.83;;;;;;;5.23;nan;100131.34;5027123;28;20185;-72
2022/01/31 10:35:28;;;;;;;20.08;4.30;;;;;;;5.40;nan;100150.06;5026715;28;20041;-72
2022/01/31 10:38:02;;;;;;;19.50;4.47;;;;;;;5.31;nan;100124.13;5029949;28;20037;-72
2022/01/31 10:46:11;;;;;;;18.85;4.47;;;;;;;5.59;nan;100132.84;5029964;28;20112;-76
2022/01/31 10:53:57;;;;;;;12.43;3.73;;;;;;;5.73;nan;100132.66;5029081;28;20152;-73
2022/01/31 10:56:24;;;;;;;14.57;2.88;;;;;;;5.69;nan;100117.56;5030028;28;20049;-74
2022/01/31 10:59:00;;;;;;;16.92;3.40;;;;;;;5.83;nan;100119.19;5029707;28;20041;-73
2022/01/31 11:01:27;;;;;;;15.70;4.05;;;;;;;5.73;nan;100100.50;5029387;28;20354;-74
2022/01/31 11:03:54;;;;;;;14.20;4.90;;;;;;;5.79;nan;100099.69;5011694;28;20048;-72
2022/01/31 11:06:22;;;;;;;13.85;4.72;;;;;;;5.74;nan;100074.16;5006009;28;20038;-74
2022/01/31 11:08:48;;;;;;;14.65;3.80;;;;;;;5.85;nan;100085.81;5009693;28;20060;-73
2022/01/31 11:11:14;;;;;;;16.58;3.47;;;;;;;5.88;nan;100097.69;5009661;28;20396;-74
2022/01/31 11:13:39;;;;;;;18.08;3.78;;;;;;;5.87;nan;100091.66;5028711;28;20029;-71
2022/01/31 11:16:09;;;;;;;16.90;3.40;;;;;;;5.70;nan;100066.94;5005863;28;20037;-74
2022/01/31 11:18:35;;;;;;;;;;;;;;;5.81;nan;100079.38;5009728;28;20034;-74
2022/01/31 11:21:05;;;;;;;23.65;4.20;;;;;;;5.74;nan;100066.31;5006894;28;19924;-74
2022/01/31 11:23:37;;;;;;;18.05;4.60;;;;;;;5.76;nan;100061.69;5028706;28;20033;-74
2022/01/31 11:26:05;;;;;;;19.00;4.22;;;;;;;5.84;nan;100059.88;5024098;28;20056;-73
2022/01/31 11:28:31;;;;;;;14.35;3.22;;;;;;;5.81;nan;100055.06;5028935;28;20029;-73
2022/01/31 11:30:57;;;;;;;20.35;4.57;;;;;;;5.63;nan;100042.63;5018192;28;20119;-73
2022/01/31 11:33:24;;;;;;;23.05;6.20;;;;;;;5.67;nan;100041.22;5011505;28;20030;-70
2022/01/31 11:35:50;;;;;;;19.95;6.50;;;;;;;5.70;nan;100039.00;5028635;28;20095;-70
2022/01/31 11:38:17;;;;;;;18.67;4.28;;;;;;;5.60;nan;100009.06;5006508;28;20542;-70
2022/01/31 11:40:43;;;;;;;17.30;3.95;;;;;;;5.43;nan;99982.53;5029021;28;20038;-72
2022/01/31 11:43:09;;;;;;;20.00;3.92;;;;;;;5.68;nan;100017.50;5027140;28;20078;-72
2022/01/31 11:45:41;;;;;;;19.88;4.47;;;;;;;5.64;nan;100003.22;5028810;28;20040;-74
2022/01/31 11:48:22;;;;;;;18.67;4.40;;;;;;;5.66;nan;100022.13;5028180;28;20148;-72
2022/01/31 11:50:52;;;;;;;21.05;3.95;;;;;;;5.65;nan;100019.69;5025506;28;20029;-73
2022/01/31 11:53:33;;;;;;;12.75;3.47;;;;;;;5.63;nan;100016.50;5025294;28;20044;-75
2022/01/31 11:56:06;;;;;;;12.00;3.33;;;;;;;5.49;nan;100000.81;5009313;28;20084;-76
2022/01/31 11:58:42;;;;;;;18.48;3.05;;;;;;;5.60;nan;100007.25;5028144;28;20033;-73